TimeEST,TemperatureF,Dew PointF,Humidity,Sea Level PressureIn,VisibilityMPH,Wind Direction,Wind SpeedMPH,Gust SpeedMPH,PrecipitationIn,Events,Conditions,WindDirDegrees,DateUTC
12:15 AM,33.8,21.2,60,29.73,10.0,North,4.6,-,N/A,,Overcast,360,2013-02-14 05:15:00
12:55 AM,35.6,21.2,56,29.70,10.0,North,8.1,-,N/A,,Overcast,360,2013-02-14 05:55:00
1:15 AM,35.6,21.2,56,29.69,10.0,North,5.8,-,N/A,,Mostly Cloudy,10,2013-02-14 06:15:00
1:35 AM,33.8,21.2,60,29.72,10.0,NNE,5.8,-,N/A,,Mostly Cloudy,20,2013-02-14 06:35:00
1:55 AM,33.8,21.2,60,29.75,10.0,NNE,6.9,-,N/A,,Overcast,30,2013-02-14 06:55:00
2:15 AM,33.8,23.0,65,29.75,10.0,NNE,8.1,-,N/A,,Overcast,20,2013-02-14 07:15:00
2:35 AM,33.8,23.0,65,29.74,10.0,NNE,5.8,-,N/A,,Overcast,20,2013-02-14 07:35:00
2:55 AM,33.8,23.0,65,29.74,10.0,NNE,5.8,-,N/A,,Overcast,20,2013-02-14 07:55:00
3:15 AM,33.8,23.0,65,29.74,10.0,North,6.9,-,N/A,,Overcast,10,2013-02-14 08:15:00
3:35 AM,33.8,23.0,65,29.74,10.0,North,4.6,-,N/A,,Overcast,360,2013-02-14 08:35:00
3:55 AM,33.8,21.2,60,29.74,10.0,NNE,8.1,-,N/A,,Overcast,20,2013-02-14 08:55:00
4:15 AM,33.8,21.2,60,29.75,10.0,North,8.1,-,N/A,,Overcast,10,2013-02-14 09:15:00
4:35 AM,33.8,21.2,60,29.76,10.0,North,4.6,-,N/A,,Overcast,10,2013-02-14 09:35:00
5:15 AM,32.0,21.2,64,29.76,10.0,North,6.9,-,N/A,,Overcast,10,2013-02-14 10:15:00
5:35 AM,32.0,21.2,64,29.77,10.0,North,4.6,-,N/A,,Overcast,10,2013-02-14 10:35:00
5:55 AM,32.0,21.2,64,29.77,10.0,Calm,Calm,-,N/A,,Overcast,0,2013-02-14 10:55:00
6:15 AM,32.0,21.2,64,29.77,10.0,North,6.9,-,N/A,,Overcast,10,2013-02-14 11:15:00
6:35 AM,32.0,21.2,64,29.77,10.0,North,6.9,-,N/A,,Overcast,10,2013-02-14 11:35:00
6:55 AM,30.2,21.2,69,29.78,10.0,North,5.8,-,N/A,,Scattered Clouds,10,2013-02-14 11:55:00
7:15 AM,30.2,21.2,69,29.78,10.0,North,5.8,-,N/A,,Clear,360,2013-02-14 12:15:00
7:35 AM,30.2,19.4,64,29.80,10.0,NNW,5.8,-,N/A,,Clear,340,2013-02-14 12:35:00
7:55 AM,30.2,21.2,69,29.81,10.0,North,3.5,-,N/A,,Clear,360,2013-02-14 12:55:00
8:15 AM,32.0,21.2,64,29.81,10.0,NNE,5.8,-,N/A,,Clear,20,2013-02-14 13:15:00
8:35 AM,32.0,21.2,64,29.82,10.0,North,4.6,-,N/A,,Clear,10,2013-02-14 13:35:00
8:55 AM,33.8,21.2,60,29.81,10.0,North,9.2,-,N/A,,Clear,360,2013-02-14 13:55:00
9:15 AM,33.8,19.4,56,29.81,10.0,North,8.1,-,N/A,,Clear,360,2013-02-14 14:15:00
9:35 AM,35.6,19.4,52,29.82,10.0,North,5.8,-,N/A,,Clear,360,2013-02-14 14:35:00
9:55 AM,35.6,17.6,48,29.82,10.0,North,6.9,-,N/A,,Clear,360,2013-02-14 14:55:00
10:15 AM,35.6,17.6,48,29.83,10.0,North,8.1,-,N/A,,Clear,360,2013-02-14 15:15:00
10:35 AM,35.6,17.6,48,29.83,10.0,North,6.9,-,N/A,,Clear,10,2013-02-14 15:35:00
10:55 AM,35.6,17.6,48,29.84,10.0,North,4.6,-,N/A,,Clear,360,2013-02-14 15:55:00
11:35 AM,37.4,15.8,41,29.83,10.0,North,10.4,16.1,N/A,,Clear,360,2013-02-14 16:35:00
11:55 AM,37.4,15.8,41,29.84,10.0,North,9.2,-,N/A,,Clear,360,2013-02-14 16:55:00
12:15 PM,37.4,15.8,41,29.84,10.0,WNW,10.4,-,N/A,,Partly Cloudy,290,2013-02-14 17:15:00
12:35 PM,37.4,17.6,45,29.84,10.0,NNW,5.8,-,N/A,,Partly Cloudy,330,2013-02-14 17:35:00
12:55 PM,37.4,15.8,41,29.84,10.0,North,5.8,-,N/A,,Clear,360,2013-02-14 17:55:00
1:15 PM,37.4,15.8,41,29.84,10.0,NW,10.4,-,N/A,,Clear,320,2013-02-14 18:15:00
1:35 PM,37.4,15.8,41,29.84,10.0,NW,9.2,-,N/A,,Clear,310,2013-02-14 18:35:00
1:55 PM,39.2,15.8,39,29.85,10.0,WNW,9.2,-,N/A,,Clear,300,2013-02-14 18:55:00
2:15 PM,39.2,17.6,42,29.85,10.0,WNW,10.4,17.3,N/A,,Clear,290,2013-02-14 19:15:00
2:35 PM,39.2,15.8,39,29.86,10.0,WNW,8.1,-,N/A,,Clear,290,2013-02-14 19:35:00
2:55 PM,39.2,15.8,39,29.87,10.0,WNW,4.6,-,N/A,,Clear,300,2013-02-14 19:55:00
3:15 PM,39.2,15.8,39,29.87,10.0,WNW,8.1,-,N/A,,Clear,290,2013-02-14 20:15:00
3:35 PM,39.2,15.8,39,29.88,10.0,NNW,4.6,-,N/A,,Clear,340,2013-02-14 20:35:00
3:55 PM,39.2,15.8,39,29.88,10.0,WNW,8.1,-,N/A,,Clear,290,2013-02-14 20:55:00
4:15 PM,39.2,15.8,39,29.88,10.0,WNW,8.1,-,N/A,,Clear,290,2013-02-14 21:15:00
4:35 PM,37.4,15.8,41,29.90,10.0,NNW,5.8,-,N/A,,Clear,330,2013-02-14 21:35:00
4:55 PM,37.4,15.8,41,29.91,10.0,West,4.6,-,N/A,,Clear,280,2013-02-14 21:55:00
5:15 PM,35.6,15.8,44,29.92,10.0,NW,3.5,-,N/A,,Clear,310,2013-02-14 22:15:00
5:35 PM,35.6,15.8,44,29.94,10.0,Calm,Calm,-,N/A,,Clear,0,2013-02-14 22:35:00
5:55 PM,30.2,17.6,60,29.94,10.0,Calm,Calm,-,N/A,,Clear,0,2013-02-14 22:55:00
6:15 PM,30.2,17.6,60,29.94,10.0,Calm,Calm,-,N/A,,Clear,0,2013-02-14 23:15:00
6:35 PM,28.4,19.4,69,29.96,10.0,West,3.5,-,N/A,,Clear,260,2013-02-14 23:35:00
6:55 PM,28.4,17.6,64,29.97,10.0,Calm,Calm,-,N/A,,Clear,0,2013-02-14 23:55:00
7:15 PM,26.6,17.6,69,29.98,10.0,Calm,Calm,-,N/A,,Clear,0,2013-02-15 00:15:00
7:35 PM,26.6,17.6,69,29.98,10.0,Calm,Calm,-,N/A,,Clear,0,2013-02-15 00:35:00
7:55 PM,24.8,17.6,74,29.98,10.0,Calm,Calm,-,N/A,,Clear,0,2013-02-15 00:55:00
8:15 PM,24.8,17.6,74,29.98,10.0,Calm,Calm,-,N/A,,Clear,0,2013-02-15 01:15:00
8:35 PM,24.8,17.6,74,29.98,10.0,Calm,Calm,-,N/A,,Clear,0,2013-02-15 01:35:00
8:55 PM,23.0,17.6,80,29.98,10.0,Calm,Calm,-,N/A,,Clear,0,2013-02-15 01:55:00
9:15 PM,24.8,17.6,74,29.98,10.0,Calm,Calm,-,N/A,,Clear,0,2013-02-15 02:15:00
9:35 PM,23.0,17.6,80,29.98,10.0,West,4.6,-,N/A,,Clear,280,2013-02-15 02:35:00
9:55 PM,24.8,19.4,80,29.99,10.0,Calm,Calm,-,N/A,,Clear,0,2013-02-15 02:55:00
10:15 PM,21.2,17.6,86,29.98,10.0,Calm,Calm,-,N/A,,Clear,0,2013-02-15 03:15:00
10:35 PM,21.2,17.6,86,29.98,10.0,Calm,Calm,-,N/A,,Clear,0,2013-02-15 03:35:00
10:55 PM,21.2,17.6,86,29.98,10.0,Calm,Calm,-,N/A,,Clear,0,2013-02-15 03:55:00
11:15 PM,21.2,15.8,80,29.98,10.0,Calm,Calm,-,N/A,,Clear,0,2013-02-15 04:15:00
11:35 PM,21.2,17.6,86,29.99,10.0,West,3.5,-,N/A,,Clear,280,2013-02-15 04:35:00
11:55 PM,19.4,15.8,86,29.99,10.0,Calm,Calm,-,N/A,,Clear,0,2013-02-15 04:55:00